Terminal Aerodrome Forecast
Issued by NWS

Home | Current Version | Previous Version | Graphics & Text | Print | Product List | Glossary On
Versions: 1 2 3 4 5 6 7 8 9 10 11 12 13 14 15 16 17 18 19 20 21 22 23 24 25
000
FTUS43 KBIS 141512 AAA
TAFJMS
TAF AMD
KJMS 141512Z 1415/1512 34011KT P6SM -SHSN OVC015
     FM141700 34016G24KT P6SM -SHSN BKN018 OVC025
     FM150100 31009KT P6SM BKN040
     FM150600 30007KT P6SM BKN025=

USA.gov is the U.S. government's official web portal to all federal, state and local government web resources and services.